Time;durP1;ratioP1;P1;durP2;ratioP2;P2;SDS_P1;SDS_P2;PMS_P1;PMS_P2;Temp;Humidity;BMP_temperature;BMP_pressure;BME280_temperature;BME280_humidity;BME280_pressure;Samples;Min_cycle;Max_cycle;Signal;HPM_P1;HPM_P2
2022/08/17 00:01:23;;;;;;;9.43;5.88;;;17.90;63.00;;;;;;5110727;28;20279;-85
2022/08/17 00:03:51;;;;;;;6.88;5.47;;;17.90;63.00;;;;;;5113577;28;20273;-85
2022/08/17 00:06:21;;;;;;;7.60;5.18;;;18.00;62.40;;;;;;5112316;28;21186;-85
2022/08/17 00:08:51;;;;;;;5.43;4.93;;;17.90;61.50;;;;;;5107716;28;20203;-85
2022/08/17 00:11:22;;;;;;;6.65;5.30;;;17.80;62.10;;;;;;5113515;28;20199;-85
2022/08/17 00:13:53;;;;;;;6.80;5.40;;;17.70;62.30;;;;;;5113660;28;20203;-85
2022/08/17 00:16:24;;;;;;;6.38;5.22;;;17.60;62.90;;;;;;5112514;28;20192;-85
2022/08/17 00:18:51;;;;;;;6.65;5.28;;;17.50;63.80;;;;;;5114972;28;20207;-85
2022/08/17 00:21:20;;;;;;;8.15;5.40;;;17.50;64.00;;;;;;5115546;28;20202;-85
2022/08/17 00:23:48;;;;;;;5.90;5.30;;;17.60;64.90;;;;;;5111999;28;20219;-85
2022/08/17 00:26:23;;;;;;;6.72;5.97;;;17.60;64.60;;;;;;5113366;28;20223;-85
2022/08/17 00:28:50;;;;;;;6.55;5.95;;;17.60;64.70;;;;;;5113399;28;20207;-85
2022/08/17 00:31:17;;;;;;;11.55;5.55;;;17.80;63.80;;;;;;5113997;28;20712;-85
2022/08/17 00:33:44;;;;;;;6.10;5.60;;;17.80;64.00;;;;;;5115214;28;20211;-85
2022/08/17 00:36:13;;;;;;;7.30;5.40;;;17.80;62.90;;;;;;5113658;28;20283;-85
2022/08/17 00:38:40;;;;;;;6.40;5.80;;;17.80;64.40;;;;;;5109036;28;20253;-85
2022/08/17 00:41:12;;;;;;;7.60;5.45;;;17.80;64.10;;;;;;5115559;28;20210;-85
2022/08/17 00:43:44;;;;;;;5.53;5.03;;;17.70;63.10;;;;;;5096808;28;20582;-85
2022/08/17 00:46:16;;;;;;;5.75;5.07;;;17.60;62.80;;;;;;5101123;28;20203;-85
2022/08/17 00:48:43;;;;;;;5.70;5.13;;;17.50;62.40;;;;;;5114167;28;20562;-85
2022/08/17 00:51:16;;;;;;;6.05;4.90;;;17.50;64.60;;;;;;5115399;28;20623;-85
2022/08/17 00:53:47;;;;;;;6.90;5.10;;;17.50;65.00;;;;;;5115422;28;20700;-85
2022/08/17 00:56:23;;;;;;;5.55;5.00;;;17.60;64.40;;;;;;5112747;28;20195;-85
2022/08/17 00:58:57;;;;;;;6.68;4.90;;;17.60;62.80;;;;;;5110505;28;20200;-86
2022/08/17 01:01:25;;;;;;;6.10;5.07;;;17.50;62.70;;;;;;5108668;28;20222;-85
2022/08/17 01:03:56;;;;;;;8.00;5.32;;;17.40;64.40;;;;;;5108761;28;20226;-85
2022/08/17 01:06:24;;;;;;;4.93;4.43;;;17.40;64.10;;;;;;5108652;28;20577;-85
2022/08/17 01:08:53;;;;;;;5.93;4.78;;;17.40;64.20;;;;;;5118747;27;20289;-85
2022/08/17 01:11:20;;;;;;;5.55;5.00;;;17.30;64.80;;;;;;5106678;28;20208;-85
2022/08/17 01:13:47;;;;;;;9.88;5.43;;;17.30;65.70;;;;;;5112307;28;20210;-85
2022/08/17 01:16:27;;;;;;;7.07;5.32;;;17.30;66.50;;;;;;5113056;28;20204;-85
2022/08/17 01:18:59;;;;;;;6.05;4.93;;;17.40;65.50;;;;;;5099536;28;20663;-85
2022/08/17 01:21:33;;;;;;;5.15;4.65;;;17.30;65.80;;;;;;5112522;28;20206;-85
2022/08/17 01:24:02;;;;;;;7.13;5.57;;;17.30;66.20;;;;;;5115031;28;20226;-85
2022/08/17 01:26:31;;;;;;;6.13;5.30;;;17.20;66.60;;;;;;5113419;28;20200;-85
2022/08/17 01:28:59;;;;;;;5.78;5.18;;;17.20;68.00;;;;;;5100009;28;20215;-85
2022/08/17 01:31:37;;;;;;;5.95;5.45;;;17.10;69.10;;;;;;5100478;28;20206;-85
2022/08/17 01:34:07;;;;;;;6.05;5.20;;;17.20;69.80;;;;;;5097933;28;20250;-85
2022/08/17 01:39:33;;;;;;;7.28;5.82;;;17.50;67.60;;;;;;5103881;28;20199;-85
2022/08/17 01:42:16;;;;;;;8.15;5.15;;;17.60;66.30;;;;;;5111907;28;20192;-85
2022/08/17 01:44:55;;;;;;;6.38;5.03;;;17.60;65.80;;;;;;5104291;28;20258;-85
2022/08/17 01:47:25;;;;;;;6.13;5.25;;;17.70;64.30;;;;;;5111408;28;20218;-85
2022/08/17 01:49:52;;;;;;;9.35;5.20;;;17.60;63.80;;;;;;5115732;28;20207;-85
2022/08/17 01:52:23;;;;;;;5.95;5.35;;;17.40;64.80;;;;;;5115860;28;20202;-85
2022/08/17 01:54:54;;;;;;;5.63;5.13;;;17.20;66.30;;;;;;5113168;28;20214;-85
2022/08/17 01:57:33;;;;;;;7.18;5.57;;;17.00;67.50;;;;;;5118816;28;20203;-84
2022/08/17 02:00:00;;;;;;;6.30;5.15;;;16.90;69.70;;;;;;5117219;28;20203;-85
2022/08/17 02:02:31;;;;;;;7.97;5.63;;;17.00;70.30;;;;;;5116982;28;20582;-85
2022/08/17 02:04:59;;;;;;;6.32;5.50;;;17.20;69.80;;;;;;5115610;28;20231;-85
2022/08/17 02:07:31;;;;;;;7.57;5.47;;;17.30;68.00;;;;;;5116894;28;20211;-85
2022/08/17 02:09:59;;;;;;;5.63;5.03;;;17.40;67.60;;;;;;5115280;28;20286;-85
2022/08/17 02:12:26;;;;;;;6.20;5.40;;;17.40;67.10;;;;;;5117242;28;20200;-85
2022/08/17 02:14:53;;;;;;;6.80;5.22;;;17.40;67.80;;;;;;5111870;27;20286;-85
2022/08/17 02:17:20;;;;;;;6.13;4.88;;;17.40;66.90;;;;;;5113510;28;20204;-85
2022/08/17 02:19:49;;;;;;;6.18;5.57;;;17.30;68.50;;;;;;5109015;28;20188;-85
2022/08/17 02:22:17;;;;;;;5.68;5.18;;;17.30;68.10;;;;;;5118661;28;20279;-84
2022/08/17 02:24:49;;;;;;;5.97;5.30;;;17.40;68.10;;;;;;5108647;27;20247;-85
2022/08/17 02:27:17;;;;;;;5.63;5.10;;;17.50;65.90;;;;;;5118516;28;20200;-85
2022/08/17 02:29:44;;;;;;;6.22;4.95;;;17.60;65.20;;;;;;5118416;28;20199;-85
2022/08/17 02:32:19;;;;;;;5.97;5.05;;;17.40;65.10;;;;;;5118265;27;20285;-85
2022/08/17 02:34:46;;;;;;;9.35;8.07;;;17.20;69.10;;;;;;5118179;28;20195;-85
2022/08/17 02:37:16;;;;;;;6.90;6.20;;;17.10;69.50;;;;;;5115401;28;20204;-85
2022/08/17 02:39:42;;;;;;;6.68;6.00;;;16.90;70.60;;;;;;5117868;28;20204;-85
2022/08/17 02:42:25;;;;;;;6.65;5.88;;;16.90;72.90;;;;;;5114897;28;20679;-85
2022/08/17 02:44:51;;;;;;;5.95;5.40;;;16.70;74.30;;;;;;5107762;28;20232;-85
2022/08/17 02:47:18;;;;;;;6.18;5.57;;;16.60;75.40;;;;;;5115547;28;20210;-85
2022/08/17 02:49:45;;;;;;;6.45;5.80;;;16.60;75.50;;;;;;5108550;28;20200;-85
2022/08/17 02:52:12;;;;;;;7.07;5.32;;;16.80;75.50;;;;;;5114210;28;20196;-85
2022/08/17 02:54:39;;;;;;;5.30;4.90;;;16.90;73.50;;;;;;5111337;28;20655;-85
2022/08/17 02:57:07;;;;;;;6.15;5.55;;;17.00;72.90;;;;;;5101504;28;20200;-85
2022/08/17 02:59:35;;;;;;;6.18;5.57;;;16.90;72.30;;;;;;5097735;27;20639;-85
2022/08/17 03:02:03;;;;;;;6.57;6.00;;;16.80;71.60;;;;;;5113342;28;20567;-85
2022/08/17 03:04:30;;;;;;;6.32;5.72;;;16.60;73.30;;;;;;5114164;28;20227;-85
2022/08/17 03:06:56;;;;;;;6.35;5.50;;;16.50;74.30;;;;;;5101985;28;20627;-85
2022/08/17 03:09:23;;;;;;;7.22;5.90;;;16.50;75.50;;;;;;5116065;28;20212;-85
2022/08/17 03:11:50;;;;;;;6.65;5.90;;;16.50;75.90;;;;;;5115454;28;20204;-85
2022/08/17 03:14:18;;;;;;;6.05;5.55;;;16.40;76.40;;;;;;5106893;28;20608;-85
2022/08/17 03:16:49;;;;;;;8.40;5.50;;;16.60;75.90;;;;;;5118193;28;20264;-85
2022/08/17 03:19:16;;;;;;;5.90;5.40;;;16.70;75.00;;;;;;5120395;28;20302;-85
2022/08/17 03:21:43;;;;;;;5.80;5.22;;;16.90;73.60;;;;;;5114047;28;20213;-85
2022/08/17 03:24:10;;;;;;;6.55;5.25;;;16.90;72.60;;;;;;5114455;28;20206;-85
2022/08/17 03:26:37;;;;;;;5.53;5.03;;;16.90;73.30;;;;;;5108723;28;20648;-85
2022/08/17 03:29:04;;;;;;;5.75;5.25;;;16.70;74.60;;;;;;5114565;28;20207;-85
2022/08/17 03:31:31;;;;;;;6.03;5.45;;;16.50;74.90;;;;;;5104554;28;20212;-85
2022/08/17 03:33:59;;;;;;;6.28;5.55;;;16.50;76.10;;;;;;5111703;28;20674;-85
2022/08/17 03:36:26;;;;;;;5.78;5.28;;;16.50;76.70;;;;;;5113285;28;20215;-85
2022/08/17 03:38:55;;;;;;;6.25;5.72;;;16.70;76.20;;;;;;5113871;28;20203;-85
2022/08/17 03:41:22;;;;;;;6.10;5.50;;;16.80;75.00;;;;;;5102771;28;20705;-85
2022/08/17 03:43:49;;;;;;;6.25;5.28;;;16.70;74.00;;;;;;5116980;28;20270;-85
2022/08/17 03:57:26;;;;;;;5.93;5.38;;;16.10;78.10;;;;;;5011486;28;20598;-85
2022/08/17 03:59:56;;;;;;;6.30;5.18;;;16.30;78.20;;;;;;5000364;28;20294;-85
2022/08/17 04:02:26;;;;;;;5.63;5.13;;;16.60;77.50;;;;;;5001918;28;20262;-85
2022/08/17 04:04:55;;;;;;;5.55;4.85;;;16.80;75.70;;;;;;5011690;28;20226;-85
2022/08/17 04:07:24;;;;;;;5.63;5.00;;;16.80;74.10;;;;;;5001744;28;20573;-85
2022/08/17 04:09:51;;;;;;;5.72;5.13;;;16.90;73.80;;;;;;5009839;28;20200;-85
2022/08/17 04:12:20;;;;;;;6.03;5.28;;;16.90;70.80;;;;;;5011150;28;20215;-85
2022/08/17 04:14:47;;;;;;;6.30;5.70;;;16.70;71.90;;;;;;5011664;28;20262;-85
2022/08/17 04:17:14;;;;;;;5.97;5.25;;;16.60;75.00;;;;;;5009900;28;20214;-85
2022/08/17 04:19:41;;;;;;;7.25;5.32;;;16.40;75.90;;;;;;5008501;28;20650;-85
2022/08/17 04:22:09;;;;;;;5.38;4.90;;;16.40;75.70;;;;;;5012079;28;20568;-86
2022/08/17 04:24:36;;;;;;;5.65;5.13;;;16.50;75.30;;;;;;5007595;28;20233;-85
2022/08/17 04:27:03;;;;;;;7.63;5.22;;;16.50;74.00;;;;;;5061855;28;20285;-85
2022/08/17 04:29:30;;;;;;;7.43;4.93;;;16.40;75.20;;;;;;5052140;28;20209;-85
2022/08/17 04:31:57;;;;;;;6.10;5.30;;;16.30;76.10;;;;;;5054548;28;20718;-85
2022/08/17 04:34:23;;;;;;;5.50;4.93;;;16.30;77.10;;;;;;5074728;28;20192;-85
2022/08/17 04:36:55;;;;;;;6.57;5.53;;;16.20;78.10;;;;;;5094806;28;20205;-85
2022/08/17 04:39:27;;;;;;;5.10;4.70;;;16.40;76.90;;;;;;5104500;28;20200;-85
2022/08/17 04:42:05;;;;;;;5.43;4.90;;;16.60;76.70;;;;;;5106162;28;20211;-85
2022/08/17 04:44:32;;;;;;;6.65;5.32;;;16.70;74.20;;;;;;5113145;28;20239;-85
2022/08/17 04:46:59;;;;;;;5.45;4.95;;;16.90;71.30;;;;;;5114567;28;20565;-85
2022/08/17 04:49:26;;;;;;;5.90;5.30;;;16.90;72.50;;;;;;5113068;28;20196;-85
2022/08/17 04:51:52;;;;;;;6.45;4.88;;;16.90;69.80;;;;;;5111137;28;20199;-85
2022/08/17 04:54:21;;;;;;;5.22;4.72;;;17.00;69.70;;;;;;5109757;28;20204;-85
2022/08/17 04:56:49;;;;;;;5.45;4.78;;;17.10;69.10;;;;;;5111976;28;20196;-86
2022/08/17 04:59:19;;;;;;;5.60;4.97;;;17.10;69.60;;;;;;5110061;28;20199;-85
2022/08/17 05:01:49;;;;;;;4.60;4.25;;;17.00;71.20;;;;;;5114657;28;20227;-85
2022/08/17 05:04:26;;;;;;;7.30;4.68;;;17.00;70.40;;;;;;5111201;28;20283;-85
2022/08/17 05:06:54;;;;;;;6.70;4.70;;;17.10;69.30;;;;;;5113894;28;20214;-85
2022/08/17 05:09:21;;;;;;;4.80;4.40;;;17.10;70.00;;;;;;5119879;28;20207;-85
2022/08/17 05:11:49;;;;;;;5.70;4.70;;;17.20;70.10;;;;;;5117929;28;20667;-85
2022/08/17 05:14:16;;;;;;;5.00;4.40;;;17.20;69.70;;;;;;5113180;28;20650;-85
2022/08/17 05:16:44;;;;;;;7.35;4.22;;;17.30;69.70;;;;;;5111748;28;20300;-85
2022/08/17 05:19:11;;;;;;;6.93;4.60;;;17.40;69.50;;;;;;5104512;28;20208;-85
2022/08/17 05:21:38;;;;;;;4.65;4.25;;;17.40;69.00;;;;;;5109484;28;20217;-85
2022/08/17 05:24:05;;;;;;;5.00;4.50;;;17.50;70.70;;;;;;5102486;28;20677;-85
2022/08/17 05:26:32;;;;;;;5.13;4.63;;;17.60;68.70;;;;;;5112578;28;20223;-85
2022/08/17 05:29:03;;;;;;;5.20;4.40;;;17.70;68.40;;;;;;5107753;28;20205;-85
2022/08/17 05:31:30;;;;;;;5.07;4.43;;;17.70;68.40;;;;;;5107372;28;20207;-85
2022/08/17 05:33:58;;;;;;;6.22;4.20;;;17.80;68.20;;;;;;5114379;28;20290;-85
2022/08/17 05:36:25;;;;;;;6.53;4.25;;;17.90;66.50;;;;;;5112912;28;20219;-85
2022/08/17 05:38:51;;;;;;;6.07;4.22;;;18.00;66.70;;;;;;5111329;28;20577;-85
2022/08/17 05:41:18;;;;;;;6.32;4.78;;;18.20;65.80;;;;;;5114196;28;20754;-85
2022/08/17 05:43:45;;;;;;;9.20;4.50;;;18.10;63.50;;;;;;5109191;28;20324;-85
2022/08/17 05:46:20;;;;;;;7.15;4.25;;;18.20;63.80;;;;;;5113794;28;20215;-85
2022/08/17 05:48:49;;;;;;;4.80;4.30;;;18.30;63.50;;;;;;5098537;28;20227;-85
2022/08/17 05:51:41;;;;;;;5.90;4.20;;;18.30;64.30;;;;;;5101184;28;20200;-85
2022/08/17 05:54:21;;;;;;;7.05;4.40;;;18.50;62.60;;;;;;5042480;28;20586;-85
2022/08/17 05:57:13;;;;;;;7.13;4.65;;;18.50;62.00;;;;;;5038699;28;20197;-85
2022/08/17 05:59:55;;;;;;;4.60;4.00;;;18.60;60.70;;;;;;5048188;28;20205;-85
2022/08/17 06:02:34;;;;;;;6.68;4.20;;;18.70;60.00;;;;;;5047825;28;20248;-85
2022/08/17 06:05:14;;;;;;;7.55;4.60;;;18.80;60.10;;;;;;5048505;28;20736;-85
2022/08/17 06:07:48;;;;;;;5.68;4.22;;;18.90;59.30;;;;;;5048954;28;20217;-85
2022/08/17 06:10:26;;;;;;;5.85;4.40;;;19.00;58.40;;;;;;5046518;28;20215;-85
2022/08/17 06:13:05;;;;;;;9.05;4.40;;;19.10;58.00;;;;;;5048649;28;20211;-85
2022/08/17 06:15:41;;;;;;;5.35;4.30;;;19.10;56.90;;;;;;5037020;28;20212;-85
2022/08/17 06:18:11;;;;;;;4.70;4.10;;;19.20;55.20;;;;;;5047230;28;20596;-85
2022/08/17 06:20:46;;;;;;;9.20;4.32;;;19.30;55.30;;;;;;5038632;28;20198;-85
2022/08/17 06:23:18;;;;;;;7.10;4.38;;;19.40;55.30;;;;;;5048934;28;20223;-85
2022/08/17 06:25:52;;;;;;;6.93;4.20;;;19.40;55.30;;;;;;5049190;28;20719;-85
2022/08/17 06:28:29;;;;;;;10.18;4.45;;;19.50;55.50;;;;;;5046443;28;20209;-85
2022/08/17 06:31:03;;;;;;;10.43;4.25;;;19.60;55.50;;;;;;5074913;28;20203;-85
2022/08/17 06:33:35;;;;;;;5.88;4.10;;;19.80;55.80;;;;;;5117975;28;20200;-85
2022/08/17 06:36:16;;;;;;;5.18;3.95;;;19.80;55.80;;;;;;5118490;28;20211;-85
2022/08/17 06:38:52;;;;;;;6.25;4.45;;;19.90;55.80;;;;;;5117939;28;20195;-85
2022/08/17 06:41:30;;;;;;;4.88;4.18;;;20.00;53.60;;;;;;5114682;28;20203;-85
2022/08/17 06:44:09;;;;;;;5.88;3.90;;;20.10;51.60;;;;;;5110461;28;20220;-85
2022/08/17 06:46:40;;;;;;;7.43;3.92;;;20.20;52.90;;;;;;5114454;28;20220;-85
2022/08/17 06:49:20;;;;;;;7.15;4.10;;;20.30;54.10;;;;;;5117479;28;20671;-85
2022/08/17 06:51:52;;;;;;;8.88;3.45;;;20.40;52.30;;;;;;5104958;28;20196;-85
2022/08/17 06:54:25;;;;;;;7.97;3.95;;;20.60;49.80;;;;;;5112690;28;20570;-85
2022/08/17 06:56:58;;;;;;;5.47;4.28;;;20.60;49.30;;;;;;5113054;28;20208;-85
2022/08/17 06:59:32;;;;;;;5.63;3.90;;;20.70;49.60;;;;;;5101403;28;20226;-85
2022/08/17 07:02:05;;;;;;;9.18;4.18;;;20.90;47.80;;;;;;5106447;28;20192;-85
2022/08/17 07:04:35;;;;;;;8.95;4.10;;;20.90;46.90;;;;;;5118105;28;20192;-86
2022/08/17 07:08:00;;;;;;;4.80;3.70;;;21.00;46.80;;;;;;5103797;28;20223;-86
2022/08/17 07:09:54;;;;;;;7.78;3.72;;;21.20;44.90;;;;;;5114166;28;20200;-86
2022/08/17 07:12:25;;;;;;;5.97;3.60;;;21.30;43.00;;;;;;5112012;28;20199;-85
2022/08/17 07:14:58;;;;;;;4.55;3.58;;;21.40;42.30;;;;;;5111787;28;20207;-86
2022/08/17 07:17:26;;;;;;;7.57;3.63;;;21.50;41.50;;;;;;5105792;28;20199;-86
2022/08/17 07:20:03;;;;;;;5.80;3.50;;;21.70;40.60;;;;;;5111766;28;20210;-86
2022/08/17 07:22:41;;;;;;;6.28;3.53;;;21.90;36.80;;;;;;5114624;28;20244;-85
2022/08/17 07:25:10;;;;;;;6.15;3.40;;;22.10;36.50;;;;;;5111471;28;20204;-86
2022/08/17 07:27:39;;;;;;;4.32;3.35;;;22.20;36.70;;;;;;5113050;28;20195;-86
2022/08/17 07:30:11;;;;;;;4.85;3.75;;;22.20;35.80;;;;;;5107283;28;20239;-86
2022/08/17 07:32:41;;;;;;;7.65;3.83;;;22.30;34.00;;;;;;5107456;28;20206;-85
2022/08/17 07:35:14;;;;;;;7.43;3.58;;;22.30;34.00;;;;;;5113352;28;20268;-86
2022/08/17 07:37:43;;;;;;;3.70;3.13;;;22.40;34.10;;;;;;5108014;28;20200;-86
2022/08/17 07:40:19;;;;;;;7.03;3.88;;;22.50;32.50;;;;;;5114541;27;20207;-86
2022/08/17 07:43:14;;;;;;;3.55;3.20;;;22.80;30.60;;;;;;5107840;28;20290;-85
2022/08/17 07:49:22;;;;;;;5.50;3.40;;;23.00;30.70;;;;;;5121994;28;20772;-83
2022/08/17 07:52:03;;;;;;;8.07;4.05;;;23.10;31.60;;;;;;5116272;28;20259;-83
2022/08/17 07:54:49;;;;;;;7.38;3.78;;;23.30;30.70;;;;;;5123531;28;20192;-83
2022/08/17 07:57:35;;;;;;;5.88;3.88;;;23.40;30.50;;;;;;5124419;28;20298;-82
2022/08/17 08:00:19;;;;;;;4.40;3.90;;;23.40;31.20;;;;;;5111792;28;20286;-82
2022/08/17 08:03:00;;;;;;;6.68;4.03;;;23.50;31.00;;;;;;5119171;28;20257;-82
2022/08/17 08:05:29;;;;;;;4.78;3.70;;;23.60;29.00;;;;;;5123781;28;20210;-82
2022/08/17 08:08:01;;;;;;;5.85;3.55;;;23.60;28.70;;;;;;5121564;28;20207;-83
2022/08/17 08:10:32;;;;;;;5.70;4.13;;;23.60;28.90;;;;;;5110031;28;20192;-83
2022/08/17 08:13:10;;;;;;;15.13;4.60;;;23.70;27.70;;;;;;5119708;28;20284;-82
2022/08/17 08:15:40;;;;;;;7.38;4.20;;;23.80;27.10;;;;;;5119151;28;20202;-82
2022/08/17 08:18:21;;;;;;;7.47;4.15;;;23.90;26.50;;;;;;5119144;28;20200;-82
2022/08/17 08:20:53;;;;;;;5.90;3.90;;;24.00;25.10;;;;;;5102118;28;20196;-83
2022/08/17 08:23:40;;;;;;;4.75;4.22;;;24.10;25.30;;;;;;5115945;28;20215;-83
2022/08/17 08:26:25;;;;;;;7.18;3.80;;;24.20;26.00;;;;;;5109106;28;20247;-82
2022/08/17 08:29:02;;;;;;;8.30;3.90;;;24.40;24.00;;;;;;5117570;28;20204;-82
2022/08/17 08:31:42;;;;;;;5.05;4.00;;;24.50;24.40;;;;;;5105553;28;20196;-82
2022/08/17 08:34:17;;;;;;;10.38;4.20;;;24.70;24.20;;;;;;5110957;28;20651;-83
2022/08/17 08:36:52;;;;;;;6.63;3.90;;;24.80;24.30;;;;;;5110806;28;20226;-83
2022/08/17 08:39:29;;;;;;;6.97;4.57;;;24.90;23.70;;;;;;5110287;28;20196;-83
2022/08/17 08:42:00;;;;;;;8.60;3.90;;;25.00;23.50;;;;;;5112598;28;20208;-83
2022/08/17 08:44:46;;;;;;;7.88;4.55;;;25.10;22.50;;;;;;5111504;28;20208;-83
2022/08/17 08:47:23;;;;;;;8.27;4.35;;;25.20;22.40;;;;;;5116925;28;20212;-81
2022/08/17 08:50:09;;;;;;;6.97;4.40;;;25.30;23.60;;;;;;5103610;28;20647;-81
2022/08/17 08:52:58;;;;;;;6.35;3.92;;;25.40;21.90;;;;;;5107803;28;20188;-82
2022/08/17 08:55:41;;;;;;;4.68;4.07;;;25.60;22.50;;;;;;5119670;28;20211;-80
2022/08/17 08:58:14;;;;;;;5.18;3.92;;;25.80;21.80;;;;;;5111775;28;20200;-81
2022/08/17 09:00:46;;;;;;;10.10;4.18;;;26.00;19.70;;;;;;5110859;28;20200;-80
2022/08/17 09:03:49;;;;;;;7.25;3.97;;;26.10;20.00;;;;;;5120694;28;20192;-81
2022/08/17 09:06:31;;;;;;;5.45;4.45;;;26.20;19.50;;;;;;5085665;28;20246;-80
2022/08/17 09:09:08;;;;;;;5.13;3.67;;;26.30;19.20;;;;;;5103324;28;20227;-82
2022/08/17 09:11:42;;;;;;;7.72;3.80;;;26.60;19.20;;;;;;5114632;28;20639;-82
2022/08/17 09:14:17;;;;;;;7.72;4.50;;;27.30;17.40;;;;;;5111088;28;20198;-82
2022/08/17 09:16:49;;;;;;;5.60;4.10;;;28.30;15.80;;;;;;5109408;28;20207;-83
2022/08/17 09:19:29;;;;;;;6.53;4.00;;;29.70;14.60;;;;;;5099781;28;20199;-84
2022/08/17 09:22:16;;;;;;;9.63;5.00;;;32.00;12.50;;;;;;5110173;28;20203;-84
2022/08/17 09:24:47;;;;;;;6.97;4.72;;;33.40;8.70;;;;;;5101477;28;20574;-84
2022/08/17 09:27:19;;;;;;;5.80;4.32;;;33.50;8.20;;;;;;5117846;28;20222;-83
2022/08/17 09:29:59;;;;;;;5.47;4.65;;;34.00;8.20;;;;;;5110469;28;20290;-84
2022/08/17 09:32:33;;;;;;;7.28;4.80;;;35.30;5.80;;;;;;5106382;28;20188;-84
2022/08/17 09:35:13;;;;;;;7.43;4.70;;;36.30;4.60;;;;;;5107099;28;20286;-84
2022/08/17 09:38:11;;;;;;;7.30;5.28;;;37.30;2.90;;;;;;5111808;28;20208;-84
2022/08/17 09:40:47;;;;;;;6.00;5.43;;;37.30;2.30;;;;;;5112788;28;20268;-84
2022/08/17 09:43:25;;;;;;;7.53;5.47;;;36.60;2.80;;;;;;5104308;28;20192;-84
2022/08/17 09:46:03;;;;;;;8.65;6.05;;;35.60;3.70;;;;;;5100753;28;20204;-84
2022/08/17 09:48:37;;;;;;;5.88;5.40;;;35.90;2.90;;;;;;5105564;28;20209;-84
2022/08/17 09:51:24;;;;;;;7.85;5.88;;;36.10;3.60;;;;;;5104842;28;20192;-84
2022/08/17 09:53:51;;;;;;;9.50;5.22;;;35.80;2.70;;;;;;5108281;28;20187;-84
2022/08/17 09:56:42;;;;;;;6.82;4.95;;;36.20;2.90;;;;;;5113117;28;20196;-84
2022/08/17 09:59:27;;;;;;;7.18;5.53;;;36.50;3.80;;;;;;5119848;28;20191;-84
2022/08/17 10:02:08;;;;;;;6.75;5.40;;;36.50;2.20;;;;;;5120192;28;20250;-84
2022/08/17 10:04:46;;;;;;;8.45;5.50;;;36.90;1.40;;;;;;5107539;28;20191;-85
2022/08/17 10:07:34;;;;;;;7.78;5.28;;;36.70;1.60;;;;;;5110666;28;20230;-84
2022/08/17 10:10:10;;;;;;;8.98;5.70;;;36.30;3.80;;;;;;5117753;28;20709;-84
2022/08/17 10:12:43;;;;;;;6.78;5.75;;;35.90;5.40;;;;;;5107336;28;20199;-84
2022/08/17 10:15:30;;;;;;;9.00;5.88;;;35.30;4.40;;;;;;5118228;28;20213;-84
2022/08/17 10:18:24;;;;;;;9.38;5.93;;;35.30;4.60;;;;;;5120554;28;20676;-84
2022/08/17 10:26:59;;;;;;;7.15;5.50;;;35.50;5.10;;;;;;5082446;28;20228;-84
2022/08/17 10:32:55;;;;;;;10.57;7.20;;;36.30;3.00;;;;;;5079919;28;20192;-84
2022/08/17 10:35:38;;;;;;;9.45;8.73;;;36.00;3.40;;;;;;5078476;28;20199;-84
2022/08/17 10:38:33;;;;;;;6.70;6.10;;;36.50;4.20;;;;;;5082025;28;20200;-84
2022/08/17 10:41:26;;;;;;;7.60;5.50;;;36.20;3.70;;;;;;5065891;28;20203;-84
2022/08/17 10:44:03;;;;;;;9.77;5.60;;;36.10;1.80;;;;;;5079836;28;20224;-84
2022/08/17 10:46:51;;;;;;;6.38;5.10;;;35.50;6.40;;;;;;5082213;28;20310;-84
2022/08/17 10:49:34;;;;;;;7.25;5.00;;;35.00;5.40;;;;;;5074357;28;20238;-84
2022/08/17 10:52:04;;;;;;;6.40;4.97;;;34.80;4.50;;;;;;5075627;28;20205;-84
2022/08/17 10:54:40;;;;;;;7.80;4.90;;;34.60;4.50;;;;;;5067901;28;20607;-84
2022/08/17 10:57:36;;;;;;;5.25;4.80;;;34.00;6.30;;;;;;5072607;28;20220;-84
2022/08/17 11:00:08;;;;;;;6.22;4.57;;;33.60;5.60;;;;;;5063978;28;20203;-84
2022/08/17 11:02:44;;;;;;;6.22;4.20;;;33.40;5.20;;;;;;5071896;28;20279;-84
2022/08/17 11:05:39;;;;;;;5.43;4.40;;;33.10;6.30;;;;;;5108530;27;20597;-84
2022/08/17 11:08:44;;;;;;;6.63;4.70;;;33.60;6.10;;;;;;5111682;28;20231;-84
2022/08/17 11:11:23;;;;;;;6.55;4.18;;;34.40;6.40;;;;;;5107860;28;20199;-83
2022/08/17 11:14:05;;;;;;;4.57;4.18;;;33.80;7.20;;;;;;5095399;28;20257;-83
2022/08/17 11:16:46;;;;;;;8.18;4.50;;;33.60;5.50;;;;;;5104692;28;20184;-83
2022/08/17 11:19:49;;;;;;;5.88;5.00;;;33.00;7.10;;;;;;5101204;28;20296;-84
2022/08/17 11:22:49;;;;;;;7.15;5.05;;;32.90;7.90;;;;;;5048929;28;20207;-83
2022/08/17 11:25:18;;;;;;;5.72;4.55;;;32.70;8.30;;;;;;5049141;28;20204;-83
2022/08/17 11:28:04;;;;;;;10.98;4.65;;;32.60;8.00;;;;;;5049342;28;20647;-83
2022/08/17 11:30:47;;;;;;;7.88;4.47;;;32.00;8.10;;;;;;5047694;28;20588;-83
2022/08/17 11:33:51;;;;;;;5.82;4.10;;;31.70;9.00;;;;;;5044563;28;20197;-83
2022/08/17 11:36:40;;;;;;;5.95;4.15;;;31.50;8.80;;;;;;5051637;28;20212;-83
2022/08/17 11:39:40;;;;;;;4.63;4.20;;;31.50;8.70;;;;;;5056367;28;20197;-83
2022/08/17 11:42:24;;;;;;;5.78;4.22;;;31.60;9.10;;;;;;4975386;28;20196;-83
2022/08/17 11:44:59;;;;;;;4.30;3.90;;;31.80;9.70;;;;;;4978424;28;20866;-83
2022/08/17 11:54:04;;;;;;;6.10;4.20;;;32.30;8.20;;;;;;4975240;28;20274;-83
2022/08/17 11:56:42;;;;;;;6.72;4.00;;;32.10;8.60;;;;;;4968523;28;20295;-83
2022/08/17 11:59:51;;;;;;;7.25;3.95;;;32.00;9.10;;;;;;5018303;28;20298;-83
2022/08/17 12:03:08;;;;;;;5.45;4.10;;;31.80;10.00;;;;;;5043036;28;20311;-84
2022/08/17 12:05:35;;;;;;;4.65;4.22;;;31.50;8.20;;;;;;4965577;28;20209;-84
2022/08/17 12:08:16;;;;;;;5.43;4.38;;;31.40;9.30;;;;;;5044259;28;20629;-84
2022/08/17 12:10:55;;;;;;;5.57;4.40;;;31.20;10.40;;;;;;5052662;28;20199;-84
2022/08/17 12:13:25;;;;;;;4.68;4.00;;;31.40;9.60;;;;;;5050841;28;20276;-84
2022/08/17 12:15:55;;;;;;;7.50;4.35;;;31.60;11.30;;;;;;5043153;28;20288;-84
2022/08/17 12:18:26;;;;;;;5.25;4.18;;;31.60;10.50;;;;;;5043708;28;20280;-84
2022/08/17 12:21:18;;;;;;;4.78;3.90;;;31.50;9.10;;;;;;5106728;28;20199;-84
2022/08/17 12:23:55;;;;;;;5.40;3.90;;;31.80;9.50;;;;;;5114070;28;20202;-84
2022/08/17 12:26:29;;;;;;;7.00;4.20;;;31.80;8.60;;;;;;5115207;28;20203;-84
2022/08/17 12:29:00;;;;;;;4.50;4.10;;;31.60;9.10;;;;;;5113285;28;20230;-84
2022/08/17 12:31:36;;;;;;;4.47;3.67;;;31.60;9.00;;;;;;5115114;27;20206;-84
2022/08/17 12:34:04;;;;;;;4.32;4.00;;;31.60;7.90;;;;;;5117455;28;20722;-84
2022/08/17 12:36:33;;;;;;;4.50;3.92;;;31.60;8.60;;;;;;5116087;28;20214;-84
2022/08/17 12:39:05;;;;;;;10.10;8.82;;;31.60;8.70;;;;;;5112817;28;20206;-84
2022/08/17 12:41:37;;;;;;;4.90;4.47;;;31.60;9.20;;;;;;5113242;27;20610;-84
2022/08/17 12:44:12;;;;;;;5.38;4.88;;;31.60;9.70;;;;;;5109550;28;20674;-84
2022/08/17 12:46:59;;;;;;;4.68;4.22;;;31.50;8.70;;;;;;5113037;28;20199;-84
2022/08/17 12:49:31;;;;;;;6.45;3.58;;;31.60;7.80;;;;;;5114618;28;20221;-84
2022/08/17 12:52:13;;;;;;;4.03;3.60;;;31.40;7.70;;;;;;5112699;28;20555;-84
2022/08/17 12:54:50;;;;;;;5.38;4.03;;;31.50;7.80;;;;;;5112775;28;20555;-84
2022/08/17 12:57:19;;;;;;;7.63;4.25;;;31.60;9.40;;;;;;5112712;28;20199;-84
2022/08/17 12:59:52;;;;;;;4.40;4.00;;;31.60;9.00;;;;;;5110778;28;20191;-84
2022/08/17 13:02:27;;;;;;;5.22;3.88;;;31.70;7.80;;;;;;5104284;28;20204;-84
2022/08/17 13:04:56;;;;;;;5.25;3.95;;;31.60;7.80;;;;;;5104879;28;20254;-84
2022/08/17 13:07:33;;;;;;;4.88;4.30;;;31.60;7.80;;;;;;5114071;28;20274;-84
2022/08/17 13:10:05;;;;;;;6.05;4.07;;;31.50;8.00;;;;;;5109956;28;20200;-83
2022/08/17 13:12:35;;;;;;;5.18;3.75;;;31.40;7.70;;;;;;5108809;28;20225;-83
2022/08/17 13:15:22;;;;;;;4.57;4.10;;;31.40;8.70;;;;;;5116902;28;20196;-83
2022/08/17 13:17:57;;;;;;;3.92;3.63;;;31.40;8.10;;;;;;5115721;28;20260;-82
2022/08/17 13:20:24;;;;;;;4.18;3.60;;;31.40;7.70;;;;;;5115324;28;20206;-83
2022/08/17 13:22:56;;;;;;;5.78;3.63;;;31.40;8.60;;;;;;5114724;28;20196;-83
2022/08/17 13:25:24;;;;;;;4.15;3.50;;;31.20;8.00;;;;;;5112097;28;20199;-83
2022/08/17 13:27:53;;;;;;;4.20;3.80;;;31.20;7.60;;;;;;5113036;28;20218;-83
2022/08/17 13:30:26;;;;;;;6.72;3.75;;;31.20;7.60;;;;;;5113835;28;20207;-83
2022/08/17 13:32:54;;;;;;;4.20;3.60;;;31.30;7.60;;;;;;5113787;28;20212;-83
2022/08/17 13:35:40;;;;;;;3.90;3.60;;;31.50;7.70;;;;;;5109213;28;20204;-83
2022/08/17 13:38:09;;;;;;;6.07;3.40;;;31.60;6.80;;;;;;5112186;28;20203;-83
2022/08/17 13:40:48;;;;;;;4.32;3.92;;;31.60;6.30;;;;;;5114118;28;20290;-83
2022/08/17 13:43:37;;;;;;;5.25;3.92;;;31.50;7.20;;;;;;5112163;28;20199;-83
2022/08/17 13:46:16;;;;;;;5.13;3.40;;;31.10;7.50;;;;;;5112281;28;20199;-83
2022/08/17 13:48:43;;;;;;;4.10;3.70;;;31.00;7.50;;;;;;5115233;28;20234;-83
2022/08/17 13:51:26;;;;;;;6.40;3.78;;;31.00;7.90;;;;;;5112049;28;20195;-83
2022/08/17 13:54:03;;;;;;;5.32;3.58;;;31.00;7.60;;;;;;5116406;28;20223;-83
2022/08/17 13:56:37;;;;;;;5.25;3.50;;;31.20;7.60;;;;;;5119734;28;20227;-82
2022/08/17 13:59:07;;;;;;;5.32;3.47;;;31.40;7.20;;;;;;5118297;28;20274;-83
2022/08/17 14:01:43;;;;;;;4.40;3.67;;;31.60;6.70;;;;;;5118189;28;20195;-83